Terminal Aerodrome Forecast
Issued by NWS

Home | Current Version | Previous Version | Text Only | Print | Product List | Glossary On
Versions: 1 2 3 4 5 6 7 8 9 10 11 12 13
444
FTUS43 KAPX 301939 AAA
TAFPLN
TAF AMD
KPLN 301939Z 3020/3118 09010G16KT P6SM SKC
     FM310100 VRB03KT P6SM FEW220
     FM310900 VRB03KT P6SM BKN100
     FM311300 09007KT P6SM BKN100=

USA.gov is the U.S. government's official web portal to all federal, state and local government web resources and services.